sensor_id;sensor_type;location;lat;lon;timestamp;pressure;altitude;pressure_sealevel;temperature;humidity
48778;BME280;34578;0.000;0.000;2023-01-31T00:01:53;97640.31;;;17.63;36.53
48778;BME280;34578;0.000;0.000;2023-01-31T00:06:53;97632.69;;;17.60;36.38
48778;BME280;34578;0.000;0.000;2023-01-31T00:11:53;97631.91;;;17.64;36.78
48778;BME280;34578;0.000;0.000;2023-01-31T00:16:54;97626.84;;;17.64;36.60
48778;BME280;34578;0.000;0.000;2023-01-31T00:21:54;97629.44;;;17.67;36.33
48778;BME280;34578;0.000;0.000;2023-01-31T00:26:55;97616.78;;;17.67;36.53
48778;BME280;34578;0.000;0.000;2023-01-31T00:31:55;97621.78;;;17.64;36.46
48778;BME280;34578;0.000;0.000;2023-01-31T00:36:56;97605.00;;;17.69;37.78
48778;BME280;34578;0.000;0.000;2023-01-31T00:41:56;97611.88;;;17.76;44.70
48778;BME280;34578;0.000;0.000;2023-01-31T00:46:56;97603.41;;;17.75;45.11
48778;BME280;34578;0.000;0.000;2023-01-31T00:51:58;97596.63;;;17.73;37.33
48778;BME280;34578;0.000;0.000;2023-01-31T00:56:58;97599.84;;;17.64;36.54
48778;BME280;34578;0.000;0.000;2023-01-31T01:01:58;97601.50;;;17.64;36.56
48778;BME280;34578;0.000;0.000;2023-01-31T01:06:59;97593.03;;;17.60;36.72
48778;BME280;34578;0.000;0.000;2023-01-31T01:11:59;97604.00;;;17.61;36.41
48778;BME280;34578;0.000;0.000;2023-01-31T01:17:00;97593.00;;;17.59;36.39
48778;BME280;34578;0.000;0.000;2023-01-31T01:22:00;97595.38;;;17.51;36.39
48778;BME280;34578;0.000;0.000;2023-01-31T01:27:01;97598.81;;;17.55;36.23
48778;BME280;34578;0.000;0.000;2023-01-31T01:32:02;97599.66;;;17.54;36.58
48778;BME280;34578;0.000;0.000;2023-01-31T01:37:02;97606.41;;;17.53;36.30
48778;BME280;34578;0.000;0.000;2023-01-31T01:42:22;97600.44;;;17.50;36.31
48778;BME280;34578;0.000;0.000;2023-01-31T01:47:43;97596.28;;;17.55;36.26
48778;BME280;34578;0.000;0.000;2023-01-31T01:53:08;97594.03;;;17.70;45.92
48778;BME280;34578;0.000;0.000;2023-01-31T01:58:18;97584.69;;;17.66;45.27
48778;BME280;34578;0.000;0.000;2023-01-31T02:03:20;97587.19;;;17.64;37.08
48778;BME280;34578;0.000;0.000;2023-01-31T02:08:22;97608.16;;;17.56;36.72
48778;BME280;34578;0.000;0.000;2023-01-31T02:13:24;97606.38;;;17.52;36.46
48778;BME280;34578;0.000;0.000;2023-01-31T02:18:26;97603.84;;;17.52;36.38
48778;BME280;34578;0.000;0.000;2023-01-31T02:29:22;97606.34;;;17.49;35.88
48778;BME280;34578;0.000;0.000;2023-01-31T02:34:40;97601.19;;;17.46;36.10
48778;BME280;34578;0.000;0.000;2023-01-31T02:40:13;97589.41;;;17.46;36.08
48778;BME280;34578;0.000;0.000;2023-01-31T02:45:30;97580.06;;;17.44;36.27
48778;BME280;34578;0.000;0.000;2023-01-31T02:55:57;97607.97;;;17.45;36.15
48778;BME280;34578;0.000;0.000;2023-01-31T03:01:21;97610.69;;;17.56;38.37
48778;BME280;34578;0.000;0.000;2023-01-31T03:12:15;97621.78;;;17.64;39.68
48778;BME280;34578;0.000;0.000;2023-01-31T03:17:11;97614.06;;;17.56;36.91
48778;BME280;34578;0.000;0.000;2023-01-31T03:22:36;97616.50;;;17.52;36.55
48778;BME280;34578;0.000;0.000;2023-01-31T03:27:43;97623.28;;;17.53;36.53
48778;BME280;34578;0.000;0.000;2023-01-31T03:32:50;97619.91;;;17.52;36.50
48778;BME280;34578;0.000;0.000;2023-01-31T03:38:04;97615.72;;;17.54;36.84
48778;BME280;34578;0.000;0.000;2023-01-31T03:48:19;97626.63;;;17.52;36.91
48778;BME280;34578;0.000;0.000;2023-01-31T03:53:35;97624.94;;;17.51;36.83
48778;BME280;34578;0.000;0.000;2023-01-31T03:58:42;97619.84;;;17.49;36.94
48778;BME280;34578;0.000;0.000;2023-01-31T04:03:52;97605.47;;;17.48;36.76
48778;BME280;34578;0.000;0.000;2023-01-31T04:08:54;97606.34;;;17.49;36.91
48778;BME280;34578;0.000;0.000;2023-01-31T04:13:55;97605.69;;;17.60;43.23
48778;BME280;34578;0.000;0.000;2023-01-31T04:18:55;97594.75;;;17.63;44.05
48778;BME280;34578;0.000;0.000;2023-01-31T04:23:56;97597.28;;;17.61;41.88
48778;BME280;34578;0.000;0.000;2023-01-31T04:28:56;97599.66;;;17.54;37.72
48778;BME280;34578;0.000;0.000;2023-01-31T04:33:57;97618.09;;;17.47;37.36
48778;BME280;34578;0.000;0.000;2023-01-31T04:38:57;97619.75;;;17.45;37.19
48778;BME280;34578;0.000;0.000;2023-01-31T04:43:59;97633.22;;;17.44;36.40
48778;BME280;34578;0.000;0.000;2023-01-31T04:49:00;97639.13;;;17.43;36.60
48778;BME280;34578;0.000;0.000;2023-01-31T04:54:00;97637.47;;;17.45;36.32
48778;BME280;34578;0.000;0.000;2023-01-31T04:59:01;97638.28;;;17.44;36.35
48778;BME280;34578;0.000;0.000;2023-01-31T05:04:01;97640.94;;;17.50;36.37
48778;BME280;34578;0.000;0.000;2023-01-31T05:09:01;97640.97;;;17.51;36.12
48778;BME280;34578;0.000;0.000;2023-01-31T05:14:02;97644.41;;;17.53;36.65
48778;BME280;34578;0.000;0.000;2023-01-31T05:19:02;97642.28;;;17.34;36.16
48778;BME280;34578;0.000;0.000;2023-01-31T05:24:02;97641.69;;;17.46;37.16
48778;BME280;34578;0.000;0.000;2023-01-31T05:29:03;97633.56;;;17.62;40.72
48778;BME280;34578;0.000;0.000;2023-01-31T05:34:06;97627.75;;;17.67;39.21
48778;BME280;34578;0.000;0.000;2023-01-31T05:39:08;97630.00;;;17.51;36.25
48778;BME280;34578;0.000;0.000;2023-01-31T05:44:09;97636.56;;;17.40;35.79
48778;BME280;34578;0.000;0.000;2023-01-31T05:49:10;97632.13;;;17.31;35.70
48778;BME280;34578;0.000;0.000;2023-01-31T05:54:11;97615.28;;;17.33;36.12
48778;BME280;34578;0.000;0.000;2023-01-31T05:59:12;97631.53;;;17.43;35.77
48778;BME280;34578;0.000;0.000;2023-01-31T06:04:12;97629.50;;;17.27;40.13
48778;BME280;34578;0.000;0.000;2023-01-31T06:09:12;97636.03;;;17.16;42.78
48778;BME280;34578;0.000;0.000;2023-01-31T06:14:13;97646.78;;;17.04;43.39
48778;BME280;34578;0.000;0.000;2023-01-31T06:19:13;97644.28;;;17.06;43.28
48778;BME280;34578;0.000;0.000;2023-01-31T06:24:14;97653.41;;;16.99;42.80
48778;BME280;34578;0.000;0.000;2023-01-31T06:29:14;97664.06;;;16.85;41.25
48778;BME280;34578;0.000;0.000;2023-01-31T06:34:14;97668.28;;;16.86;43.61
48778;BME280;34578;0.000;0.000;2023-01-31T06:39:15;97667.78;;;17.02;43.57
48778;BME280;34578;0.000;0.000;2023-01-31T06:44:15;97678.03;;;17.08;44.06
48778;BME280;34578;0.000;0.000;2023-01-31T06:49:15;97674.63;;;17.06;43.39
48778;BME280;34578;0.000;0.000;2023-01-31T06:54:16;97679.53;;;16.98;43.28
48778;BME280;34578;0.000;0.000;2023-01-31T06:59:16;97667.66;;;16.96;42.93
48778;BME280;34578;0.000;0.000;2023-01-31T07:04:16;97671.00;;;16.95;42.79
48778;BME280;34578;0.000;0.000;2023-01-31T07:09:17;97665.03;;;16.91;43.07
48778;BME280;34578;0.000;0.000;2023-01-31T07:14:17;97673.41;;;16.87;43.05
48778;BME280;34578;0.000;0.000;2023-01-31T07:19:18;97662.31;;;16.81;43.14
48778;BME280;34578;0.000;0.000;2023-01-31T07:24:18;97674.31;;;16.91;42.81
48778;BME280;34578;0.000;0.000;2023-01-31T07:29:18;97672.59;;;16.90;42.79
48778;BME280;34578;0.000;0.000;2023-01-31T07:34:19;97664.09;;;16.88;43.10
48778;BME280;34578;0.000;0.000;2023-01-31T07:39:22;97664.84;;;16.82;42.49
48778;BME280;34578;0.000;0.000;2023-01-31T07:44:22;97674.13;;;16.82;42.69
48778;BME280;34578;0.000;0.000;2023-01-31T07:49:23;97685.06;;;16.81;43.41
48778;BME280;34578;0.000;0.000;2023-01-31T07:54:23;97684.53;;;16.97;43.21
48778;BME280;34578;0.000;0.000;2023-01-31T07:59:24;97683.78;;;17.01;42.97
48778;BME280;34578;0.000;0.000;2023-01-31T08:04:24;97681.81;;;16.86;42.97
48778;BME280;34578;0.000;0.000;2023-01-31T08:09:24;97685.78;;;16.77;42.90
48778;BME280;34578;0.000;0.000;2023-01-31T08:14:25;97685.69;;;16.73;42.80
48778;BME280;34578;0.000;0.000;2023-01-31T08:19:27;97702.50;;;16.71;42.53
48778;BME280;34578;0.000;0.000;2023-01-31T08:24:27;97707.53;;;16.69;42.56
48778;BME280;34578;0.000;0.000;2023-01-31T08:29:29;97715.88;;;16.65;42.77
48778;BME280;34578;0.000;0.000;2023-01-31T08:34:32;97709.03;;;16.61;43.05
48778;BME280;34578;0.000;0.000;2023-01-31T08:39:32;97704.84;;;16.62;43.04
48778;BME280;34578;0.000;0.000;2023-01-31T08:44:32;97702.25;;;16.60;42.45
48778;BME280;34578;0.000;0.000;2023-01-31T08:49:32;97683.69;;;16.58;42.38
48778;BME280;34578;0.000;0.000;2023-01-31T08:54:36;97682.81;;;16.58;42.52
48778;BME280;34578;0.000;0.000;2023-01-31T08:59:36;97675.34;;;16.62;42.52
48778;BME280;34578;0.000;0.000;2023-01-31T09:04:36;97673.22;;;16.80;43.16
48778;BME280;34578;0.000;0.000;2023-01-31T09:09:37;97677.72;;;16.93;42.93
48778;BME280;34578;0.000;0.000;2023-01-31T09:14:37;97670.06;;;16.90;43.00
48778;BME280;34578;0.000;0.000;2023-01-31T09:19:37;97684.91;;;16.75;42.45
48778;BME280;34578;0.000;0.000;2023-01-31T09:24:38;97686.47;;;16.70;42.71
48778;BME280;34578;0.000;0.000;2023-01-31T09:29:38;97684.72;;;16.67;42.98
48778;BME280;34578;0.000;0.000;2023-01-31T09:34:38;97682.19;;;16.66;42.47
48778;BME280;34578;0.000;0.000;2023-01-31T09:39:39;97672.91;;;16.65;43.24
48778;BME280;34578;0.000;0.000;2023-01-31T09:44:41;97677.13;;;16.66;42.77
48778;BME280;34578;0.000;0.000;2023-01-31T09:49:53;97665.38;;;16.68;43.40
48778;BME280;34578;0.000;0.000;2023-01-31T09:54:55;97660.25;;;16.65;42.44
48778;BME280;34578;0.000;0.000;2023-01-31T10:00:15;97661.81;;;16.60;43.28
48778;BME280;34578;0.000;0.000;2023-01-31T10:10:47;97664.34;;;16.60;42.53
48778;BME280;34578;0.000;0.000;2023-01-31T10:15:59;97661.78;;;16.59;42.63
48778;BME280;34578;0.000;0.000;2023-01-31T10:21:05;97673.31;;;16.84;43.16
48778;BME280;34578;0.000;0.000;2023-01-31T10:26:35;97680.22;;;16.91;42.79
48778;BME280;34578;0.000;0.000;2023-01-31T10:31:48;97684.28;;;16.85;42.83
48778;BME280;34578;0.000;0.000;2023-01-31T10:37:01;97681.59;;;16.77;42.64
48778;BME280;34578;0.000;0.000;2023-01-31T10:42:19;97687.50;;;16.78;42.67
48778;BME280;34578;0.000;0.000;2023-01-31T10:47:40;97666.44;;;16.77;42.93
48778;BME280;34578;0.000;0.000;2023-01-31T10:58:27;97646.09;;;16.73;42.81
48778;BME280;34578;0.000;0.000;2023-01-31T11:03:27;97647.72;;;16.70;42.89
48778;BME280;34578;0.000;0.000;2023-01-31T11:13:31;97648.44;;;16.64;43.01
48778;BME280;34578;0.000;0.000;2023-01-31T11:18:34;97653.59;;;16.69;42.61
48778;BME280;34578;0.000;0.000;2023-01-31T11:23:36;97649.50;;;16.75;42.82
48778;BME280;34578;0.000;0.000;2023-01-31T11:28:39;97638.63;;;16.79;42.61
48778;BME280;34578;0.000;0.000;2023-01-31T11:34:20;97632.97;;;16.89;42.22
48778;BME280;34578;0.000;0.000;2023-01-31T11:39:33;97649.91;;;16.93;42.11
48778;BME280;34578;0.000;0.000;2023-01-31T11:44:33;97649.91;;;16.93;41.95
48778;BME280;34578;0.000;0.000;2023-01-31T11:49:38;97650.78;;;16.95;41.65
48778;BME280;34578;0.000;0.000;2023-01-31T11:54:44;97646.53;;;16.94;42.18
48778;BME280;34578;0.000;0.000;2023-01-31T11:59:48;97631.38;;;16.94;42.06
48778;BME280;34578;0.000;0.000;2023-01-31T12:04:49;97635.59;;;16.93;41.74
48778;BME280;34578;0.000;0.000;2023-01-31T12:09:50;97632.28;;;16.97;41.78
48778;BME280;34578;0.000;0.000;2023-01-31T12:14:54;97621.38;;;17.00;41.37
48778;BME280;34578;0.000;0.000;2023-01-31T12:20:09;97595.16;;;16.96;41.68
48778;BME280;34578;0.000;0.000;2023-01-31T12:25:21;97596.00;;;16.95;41.93
48778;BME280;34578;0.000;0.000;2023-01-31T12:35:56;97564.69;;;16.90;42.48
48778;BME280;34578;0.000;0.000;2023-01-31T12:52:14;97552.94;;;16.94;42.33
48778;BME280;34578;0.000;0.000;2023-01-31T12:57:28;97574.88;;;16.95;43.41
48778;BME280;34578;0.000;0.000;2023-01-31T13:07:57;97572.22;;;16.87;41.82
48778;BME280;34578;0.000;0.000;2023-01-31T13:13:01;97561.41;;;16.94;41.86
48778;BME280;34578;0.000;0.000;2023-01-31T13:18:05;97528.88;;;16.71;39.03
48778;BME280;34578;0.000;0.000;2023-01-31T13:23:12;97531.22;;;16.61;40.99
48778;BME280;34578;0.000;0.000;2023-01-31T13:28:20;97549.19;;;16.74;42.91
48778;BME280;34578;0.000;0.000;2023-01-31T13:38:24;97558.56;;;16.79;41.28
48778;BME280;34578;0.000;0.000;2023-01-31T13:43:26;97546.00;;;16.84;43.29
48778;BME280;34578;0.000;0.000;2023-01-31T13:48:46;97533.34;;;16.82;42.50
48778;BME280;34578;0.000;0.000;2023-01-31T13:53:57;97536.47;;;16.70;41.17
48778;BME280;34578;0.000;0.000;2023-01-31T13:59:02;97539.38;;;16.89;40.41
48778;BME280;34578;0.000;0.000;2023-01-31T14:09:36;97504.34;;;16.66;38.33
48778;BME280;34578;0.000;0.000;2023-01-31T14:14:43;97503.31;;;17.00;38.56
48778;BME280;34578;0.000;0.000;2023-01-31T14:29:58;97503.91;;;16.86;38.07
48778;BME280;34578;0.000;0.000;2023-01-31T14:45:59;97500.78;;;16.99;38.36
48778;BME280;34578;0.000;0.000;2023-01-31T14:51:17;97501.66;;;17.01;38.07
48778;BME280;34578;0.000;0.000;2023-01-31T14:56:26;97499.16;;;17.04;37.91
48778;BME280;34578;0.000;0.000;2023-01-31T15:01:35;97478.88;;;17.01;38.08
48778;BME280;34578;0.000;0.000;2023-01-31T15:06:38;97498.38;;;17.06;38.66
48778;BME280;34578;0.000;0.000;2023-01-31T15:11:44;97489.13;;;17.07;38.11
48778;BME280;34578;0.000;0.000;2023-01-31T15:16:52;97495.88;;;17.08;38.87
48778;BME280;34578;0.000;0.000;2023-01-31T15:21:57;97497.75;;;17.18;40.35
48778;BME280;34578;0.000;0.000;2023-01-31T15:27:00;97498.69;;;17.24;40.88
48778;BME280;34578;0.000;0.000;2023-01-31T15:32:18;97501.22;;;17.24;39.46
48778;BME280;34578;0.000;0.000;2023-01-31T15:37:23;97491.03;;;17.20;38.91
48778;BME280;34578;0.000;0.000;2023-01-31T15:42:27;97474.09;;;17.16;39.09
48778;BME280;34578;0.000;0.000;2023-01-31T15:47:27;97479.09;;;17.13;37.13
48778;BME280;34578;0.000;0.000;2023-01-31T15:52:30;97478.34;;;17.17;38.01
48778;BME280;34578;0.000;0.000;2023-01-31T15:57:36;97480.00;;;17.16;37.97
48778;BME280;34578;0.000;0.000;2023-01-31T16:02:38;97463.16;;;17.17;38.61
48778;BME280;34578;0.000;0.000;2023-01-31T16:07:38;97447.94;;;17.14;38.40
48778;BME280;34578;0.000;0.000;2023-01-31T16:12:42;97456.25;;;17.08;37.59
48778;BME280;34578;0.000;0.000;2023-01-31T16:17:43;97447.94;;;17.14;37.12
48778;BME280;34578;0.000;0.000;2023-01-31T16:22:54;97467.41;;;17.19;37.18
48778;BME280;34578;0.000;0.000;2023-01-31T16:27:55;97476.63;;;17.16;37.53
48778;BME280;34578;0.000;0.000;2023-01-31T16:33:01;97480.88;;;17.17;37.03
48778;BME280;34578;0.000;0.000;2023-01-31T16:38:04;97502.97;;;17.27;41.25
48778;BME280;34578;0.000;0.000;2023-01-31T16:53:32;97520.63;;;17.25;38.65
48778;BME280;34578;0.000;0.000;2023-01-31T16:58:53;97538.41;;;17.27;37.23
48778;BME280;34578;0.000;0.000;2023-01-31T17:09:05;97561.88;;;17.20;38.55
48778;BME280;34578;0.000;0.000;2023-01-31T17:14:07;97583.81;;;17.19;38.74
48778;BME280;34578;0.000;0.000;2023-01-31T17:19:09;97588.97;;;17.24;39.15
48778;BME280;34578;0.000;0.000;2023-01-31T17:24:19;97580.53;;;17.25;38.56
48778;BME280;34578;0.000;0.000;2023-01-31T17:29:21;97573.69;;;17.21;37.23
48778;BME280;34578;0.000;0.000;2023-01-31T17:34:24;97573.78;;;17.24;36.96
48778;BME280;34578;0.000;0.000;2023-01-31T17:39:25;97567.00;;;17.23;36.79
48778;BME280;34578;0.000;0.000;2023-01-31T17:44:25;97575.47;;;17.25;36.86
48778;BME280;34578;0.000;0.000;2023-01-31T17:49:26;97563.03;;;17.35;37.30
48778;BME280;34578;0.000;0.000;2023-01-31T17:54:27;97548.72;;;17.36;44.44
48778;BME280;34578;0.000;0.000;2023-01-31T17:59:27;97555.59;;;17.43;42.97
48778;BME280;34578;0.000;0.000;2023-01-31T18:04:28;97557.97;;;17.35;39.26
48778;BME280;34578;0.000;0.000;2023-01-31T18:09:28;97564.75;;;17.36;41.42
48778;BME280;34578;0.000;0.000;2023-01-31T18:14:28;97570.66;;;17.37;42.51
48778;BME280;34578;0.000;0.000;2023-01-31T18:19:29;97580.72;;;17.34;40.68
48778;BME280;34578;0.000;0.000;2023-01-31T18:24:29;97580.72;;;17.34;40.04
48778;BME280;34578;0.000;0.000;2023-01-31T18:29:30;97585.84;;;17.37;39.86
48778;BME280;34578;0.000;0.000;2023-01-31T18:34:30;97588.34;;;17.35;40.04
48778;BME280;34578;0.000;0.000;2023-01-31T18:39:32;97587.44;;;17.32;39.72
48778;BME280;34578;0.000;0.000;2023-01-31T18:44:33;97588.25;;;17.32;40.54
48778;BME280;34578;0.000;0.000;2023-01-31T18:49:33;97576.44;;;17.31;39.46
48778;BME280;34578;0.000;0.000;2023-01-31T18:54:35;97564.66;;;17.33;40.03
48778;BME280;34578;0.000;0.000;2023-01-31T18:59:36;97567.22;;;17.35;40.49
48778;BME280;34578;0.000;0.000;2023-01-31T19:04:37;97573.06;;;17.31;41.52
48778;BME280;34578;0.000;0.000;2023-01-31T19:09:37;97585.91;;;17.40;40.57
48778;BME280;34578;0.000;0.000;2023-01-31T19:14:37;97584.22;;;17.40;42.86
48778;BME280;34578;0.000;0.000;2023-01-31T19:19:38;97581.63;;;17.36;39.83
48778;BME280;34578;0.000;0.000;2023-01-31T19:24:38;97586.59;;;17.34;39.48
48778;BME280;34578;0.000;0.000;2023-01-31T19:29:38;97574.03;;;17.36;37.51
48778;BME280;34578;0.000;0.000;2023-01-31T19:34:40;97552.97;;;17.38;37.26
48778;BME280;34578;0.000;0.000;2023-01-31T19:39:40;97551.28;;;17.39;37.31
48778;BME280;34578;0.000;0.000;2023-01-31T19:44:41;97552.94;;;17.37;37.09
48778;BME280;34578;0.000;0.000;2023-01-31T19:49:41;97554.50;;;17.30;37.27
48778;BME280;34578;0.000;0.000;2023-01-31T19:54:42;97543.56;;;17.33;37.11
48778;BME280;34578;0.000;0.000;2023-01-31T19:59:42;97537.59;;;17.29;36.94
48778;BME280;34578;0.000;0.000;2023-01-31T20:04:43;97547.75;;;17.31;37.16
48778;BME280;34578;0.000;0.000;2023-01-31T20:09:44;97551.91;;;17.29;36.92
48778;BME280;34578;0.000;0.000;2023-01-31T20:14:44;97563.66;;;17.24;36.93
48778;BME280;34578;0.000;0.000;2023-01-31T20:19:44;97560.34;;;17.28;37.22
48778;BME280;34578;0.000;0.000;2023-01-31T20:24:45;97560.66;;;17.43;39.09
48778;BME280;34578;0.000;0.000;2023-01-31T20:29:45;97552.31;;;17.48;39.04
48778;BME280;34578;0.000;0.000;2023-01-31T20:34:46;97547.13;;;17.41;37.12
48778;BME280;34578;0.000;0.000;2023-01-31T20:39:46;97543.66;;;17.36;37.18
48778;BME280;34578;0.000;0.000;2023-01-31T20:44:46;97529.66;;;17.10;37.13
48778;BME280;34578;0.000;0.000;2023-01-31T20:49:47;97539.66;;;17.02;37.05
48778;BME280;34578;0.000;0.000;2023-01-31T20:54:47;97526.91;;;16.99;36.89
48778;BME280;34578;0.000;0.000;2023-01-31T20:59:47;97532.72;;;16.94;36.87
48778;BME280;34578;0.000;0.000;2023-01-31T21:04:48;97533.59;;;16.96;36.96
48778;BME280;34578;0.000;0.000;2023-01-31T21:09:48;97532.66;;;16.91;36.57
48778;BME280;34578;0.000;0.000;2023-01-31T21:14:50;97538.56;;;16.91;36.56
48778;BME280;34578;0.000;0.000;2023-01-31T21:19:51;97522.56;;;16.91;36.24
48778;BME280;34578;0.000;0.000;2023-01-31T21:24:51;97534.81;;;16.72;37.01
48778;BME280;34578;0.000;0.000;2023-01-31T21:29:51;97538.47;;;16.87;37.19
48778;BME280;34578;0.000;0.000;2023-01-31T21:34:52;97535.50;;;17.06;36.96
48778;BME280;34578;0.000;0.000;2023-01-31T21:39:52;97538.28;;;17.21;43.63
48778;BME280;34578;0.000;0.000;2023-01-31T21:44:53;97532.47;;;17.26;44.70
48778;BME280;34578;0.000;0.000;2023-01-31T21:49:53;97523.09;;;17.21;37.96
48778;BME280;34578;0.000;0.000;2023-01-31T21:54:53;97527.25;;;17.16;37.25
48778;BME280;34578;0.000;0.000;2023-01-31T21:59:53;97520.44;;;17.13;37.04
48778;BME280;34578;0.000;0.000;2023-01-31T22:04:54;97506.03;;;17.11;37.16
48778;BME280;34578;0.000;0.000;2023-01-31T22:09:54;97504.34;;;17.10;37.03
48778;BME280;34578;0.000;0.000;2023-01-31T22:14:54;97506.84;;;17.08;36.85
48778;BME280;34578;0.000;0.000;2023-01-31T22:19:55;97507.72;;;17.09;37.14
48778;BME280;34578;0.000;0.000;2023-01-31T22:24:55;97501.00;;;17.11;36.60
48778;BME280;34578;0.000;0.000;2023-01-31T22:29:57;97498.41;;;17.08;37.24
48778;BME280;34578;0.000;0.000;2023-01-31T22:34:57;97492.53;;;17.09;37.00
48778;BME280;34578;0.000;0.000;2023-01-31T22:39:57;97470.59;;;17.08;37.14
48778;BME280;34578;0.000;0.000;2023-01-31T22:44:58;97460.47;;;17.08;37.09
48778;BME280;34578;0.000;0.000;2023-01-31T22:49:58;97452.88;;;17.09;36.95
48778;BME280;34578;0.000;0.000;2023-01-31T22:54:58;97438.78;;;17.23;42.63
48778;BME280;34578;0.000;0.000;2023-01-31T22:59:59;97438.88;;;17.28;45.24
48778;BME280;34578;0.000;0.000;2023-01-31T23:04:59;97440.53;;;17.26;38.82
48778;BME280;34578;0.000;0.000;2023-01-31T23:10:02;97455.59;;;17.20;37.75
48778;BME280;34578;0.000;0.000;2023-01-31T23:15:02;97448.69;;;17.10;37.45
48778;BME280;34578;0.000;0.000;2023-01-31T23:20:12;97460.63;;;17.17;37.32
48778;BME280;34578;0.000;0.000;2023-01-31T23:25:13;97462.28;;;17.15;37.14
48778;BME280;34578;0.000;0.000;2023-01-31T23:30:15;97466.50;;;17.17;37.29
48778;BME280;34578;0.000;0.000;2023-01-31T23:35:16;97464.84;;;17.18;37.18
48778;BME280;34578;0.000;0.000;2023-01-31T23:40:16;97456.41;;;17.17;37.06
48778;BME280;34578;0.000;0.000;2023-01-31T23:45:17;97457.22;;;17.15;37.02
48778;BME280;34578;0.000;0.000;2023-01-31T23:50:17;97456.34;;;17.14;37.31
48778;BME280;34578;0.000;0.000;2023-01-31T23:55:18;97453.78;;;17.13;37.07
